• Join FlightAware (Why Join?)
  • Login
  • US Flag 
09:01AM EDT


 

Airport Tracker/Info


-or-


 

Live Flight TrackerFlight Track Log ✈ JBU917 ✈ 07-Jul-2013 ✈ KBOS - KJFK

Flight Track Log - Related Links

Times and Time Zones

All times are in EDT time to prevent confusion due to time zone crossing. See the JBU917 flight status page for this flight to view local times or setup timezone preferences in your user account.

Time Position Orientation Groundspeed Altitude Reporting Facility
EDT Latitude Longitude Course Direction KTS MPH feet Rate Location/Type
06:04AM 42.3500 -70.9833 203° Southwest 181 208 600  Level KA90
06:05AM 42.3333 -70.9333 114° Southeast 214 246 1,800 2,160 Climbing KA90
06:06AM 42.3333 -70.8500 90° East 241 277 4,300 2,160 Climbing KA90
06:07AM 41.7642 -70.7834 213° Southwest  Level FlightAware Approximate
06:07AM 42.3167 -70.7500 103° East 297 342 6,200  Level KA90
06:08AM 41.7171 -70.8247 213° Southwest  Level FlightAware Approximate
06:08AM 42.2931 -70.6914 119° Southeast 301 346 7,900  Level Boston Center
06:09AM 41.6700 -70.8659 213° Southwest  Level FlightAware Approximate
06:09AM 42.2111 -70.6489 159° South 288 331 10,400  Level Boston Center
06:10AM 41.6202 -70.9004 203° Southwest  Level FlightAware Approximate
06:10AM 42.1108 -70.6294 172° South 293 337 13,000  Level Boston Center
06:11AM 42.0303 -70.6681 200° South 286 329 14,900 1,860 Climbing Boston Center
06:12AM 41.9539 -70.7261 209° Southwest 297 342 16,800 1,860 Climbing Boston Center
06:13AM 41.8656 -70.8206 219° Southwest 303 349 19,400 1,740 Climbing Boston Center
06:14AM 41.7919 -70.9058 221° Southwest 318 366 21,000 1,260 Climbing Boston Center
06:15AM 41.7219 -70.9856 220° Southwest 330 380 22,000 480 Climbing Boston Center
06:16AM 41.6500 -71.0675 220° Southwest 340 391 22,000  Level Boston Center
06:17AM 41.5739 -71.1442 217° Southwest 340 391 22,000  Level Boston Center
06:18AM 41.4978 -71.2233 218° Southwest 346 398 22,000  Level Boston Center
06:19AM 41.4278 -71.3050 221° Southwest 351 404 22,000  Level Boston Center
06:20AM 41.3514 -71.3839 218° Southwest 351 404 22,000  Level Boston Center
06:21AM 41.2792 -71.4650 220° Southwest 351 404 22,000  Level Boston Center
06:22AM 41.2028 -71.5461 219° Southwest 351 404 22,000  Level Boston Center
06:23AM 41.1536 -71.6544 239° Southwest 321 369 22,000  Level Boston Center
06:24AM 41.1397 -71.7786 262° West 321 369 22,000  Level Boston Center
06:25AM 41.1258 -71.9000 261° West 321 369 22,000  Level Boston Center
06:27AM 41.1136 -72.0131 262° West 342 394 22,000 -60 Level Boston Center
06:28AM 41.0914 -72.1564 258° West 342 394 21,900 -900 Descending Boston Center
06:29AM 41.0622 -72.2694 251° West 337 388 20,200 -1,860 Descending Boston Center
06:30AM 41.0333 -72.3906 252° West 325 374 18,200 -1,860 Descending Boston Center
06:31AM 41.0042 -72.5006 251° West 325 374 16,500 -1,620 Descending Boston Center
06:32AM 40.9811 -72.6050 254° West 315 362 15,000 -1,620 Descending Boston Center
06:32AM 40.9500 -72.7000 247° West 300 345 13,600 -1,680 Descending New York TRACON
06:33AM 40.9333 -72.8000 258° West 291 335 12,000 -780 Descending New York TRACON
06:35AM 40.8667 -72.8667 217° Southwest 283 326 12,000  Level New York TRACON
06:35AM 40.8000 -72.9167 210° Southwest 287 330 12,000 -900 Level New York TRACON
06:37AM 40.7333 -72.9833 217° Southwest 285 328 10,300 -1,740 Descending New York TRACON
06:37AM 40.7000 -73.0667 242° Southwest 275 316 8,600 -1,740 Descending New York TRACON
06:38AM 40.6667 -73.1667 246° West 273 314 7,000 -1,620 Descending New York TRACON
06:39AM 40.6333 -73.2500 242° Southwest 267 307 5,400 -1,560 Descending New York TRACON
06:40AM 40.6000 -73.3333 242° Southwest 264 304 3,900 -1,140 Descending New York TRACON
06:42AM 40.5667 -73.4333 246° West 259 298 3,100 -480 Descending New York TRACON
06:42AM 40.5500 -73.5000 252° West 223 257 3,000 -60 Descending New York TRACON
06:43AM 40.5667 -73.5667 288° West 206 237 3,000 -420 Level New York TRACON
06:44AM 40.5833 -73.6333 288° West 177 204 2,200 -780 Descending New York TRACON
06:45AM 40.6000 -73.6667 303° West 128 147 1,500 -720 Descending New York TRACON
06:47AM 40.6167 -73.7167 294° West 127 146 800 -660 Descending New York TRACON
06:49AM 40.6333 -73.7667 North  Level FlightAware Approximate